Time;durP1;ratioP1;P1;durP2;ratioP2;P2;SDS_P1;SDS_P2;PMS_P1;PMS_P2;Temp;Humidity;BMP_temperature;BMP_pressure;BME280_temperature;BME280_humidity;BME280_pressure;Samples;Min_cycle;Max_cycle;Signal;HPM_P1;HPM_P2
2023/12/24 00:01:12;;;;;;;9.27;4.53;;;;;;;12.22;62.61;99448.28;5093563;28;20032;-49
2023/12/24 00:03:38;;;;;;;10.05;5.63;;;;;;;12.07;63.42;99450.97;5094572;28;20544;-49
2023/12/24 00:06:05;;;;;;;23.95;18.23;;;;;;;12.02;63.07;99455.22;5093184;28;20032;-49
2023/12/24 00:08:31;;;;;;;13.27;9.02;;;;;;;11.99;63.51;99444.06;5094550;28;20035;-49
2023/12/24 00:10:57;;;;;;;16.23;13.55;;;;;;;12.46;63.84;99444.38;5094677;28;20394;-49
2023/12/24 00:13:25;;;;;;;9.38;6.05;;;;;;;12.90;61.87;99437.91;5093250;28;20024;-49
2023/12/24 00:15:50;;;;;;;10.30;6.38;;;;;;;13.16;60.62;99431.94;5094435;28;20454;-49
2023/12/24 00:18:16;;;;;;;16.25;7.93;;;;;;;13.42;59.84;99440.09;5092930;28;20058;-49
2023/12/24 00:20:42;;;;;;;9.85;6.90;;;;;;;13.64;58.56;99435.47;5092930;28;20021;-49
2023/12/24 00:23:09;;;;;;;9.98;5.78;;;;;;;13.62;57.29;99430.41;5094048;28;20051;-48
2023/12/24 00:25:36;;;;;;;6.88;4.75;;;;;;;13.23;56.46;99423.22;5094470;28;20028;-49
2023/12/24 00:28:03;;;;;;;8.85;4.63;;;;;;;12.52;58.06;99433.06;5094160;28;20050;-49
2023/12/24 00:30:28;;;;;;;6.43;4.00;;;;;;;12.48;59.19;99431.84;5092795;28;20592;-49
2023/12/24 00:32:58;;;;;;;10.55;5.75;;;;;;;12.82;59.41;99426.72;5092770;28;20059;-49
2023/12/24 00:35:25;;;;;;;7.03;5.40;;;;;;;12.97;58.57;99425.56;5094042;28;20133;-49
2023/12/24 00:37:51;;;;;;;9.80;5.63;;;;;;;12.71;57.96;99426.28;5092538;28;20413;-49
2023/12/24 00:40:19;;;;;;;8.05;4.93;;;;;;;12.57;58.57;99419.31;5092584;28;20032;-49
2023/12/24 00:42:45;;;;;;;9.45;5.03;;;;;;;12.61;59.53;99419.75;5092543;28;20032;-49
2023/12/24 00:45:11;;;;;;;9.18;5.13;;;;;;;12.68;59.15;99420.59;5093852;28;20056;-49
2023/12/24 00:47:38;;;;;;;7.20;5.03;;;;;;;12.22;58.77;99423.78;5093729;28;20024;-49
2023/12/24 00:50:08;;;;;;;5.40;4.38;;;;;;;11.50;59.85;99418.53;5092427;28;20058;-49
2023/12/24 00:52:35;;;;;;;6.80;4.75;;;;;;;10.87;61.37;99417.47;5075564;28;20047;-49
2023/12/24 00:55:01;;;;;;;10.70;6.53;;;;;;;10.31;63.02;99417.94;5093634;28;20054;-49
2023/12/24 00:57:26;;;;;;;6.97;4.75;;;;;;;10.06;64.30;99428.66;5092289;28;20028;-49
2023/12/24 00:59:52;;;;;;;6.55;4.55;;;;;;;10.06;65.56;99427.81;5093452;28;20032;-49
2023/12/24 01:02:17;;;;;;;8.73;4.72;;;;;;;10.58;66.75;99414.69;5092177;28;20032;-49
2023/12/24 01:04:43;;;;;;;6.35;4.20;;;;;;;10.88;65.02;99419.06;5093386;28;20055;-49
2023/12/24 01:07:09;;;;;;;6.78;4.95;;;;;;;11.10;66.57;99420.75;5093386;28;20028;-49
2023/12/24 01:09:38;;;;;;;9.65;5.32;;;;;;;11.13;69.34;99419.59;5093296;28;20055;-49
2023/12/24 01:12:05;;;;;;;6.15;5.15;;;;;;;10.76;70.38;99408.22;5092881;28;20028;-48
2023/12/24 01:14:30;;;;;;;7.68;5.10;;;;;;;10.32;72.58;99401.19;5091919;28;20048;-48
2023/12/24 01:16:56;;;;;;;144.82;70.30;;;;;;;9.90;73.86;99403.41;5093208;28;20103;-48
2023/12/24 01:19:22;;;;;;;36.85;10.68;;;;;;;9.51;75.61;99404.38;5091748;28;20035;-48
2023/12/24 01:21:48;;;;;;;17.52;10.65;;;;;;;9.45;79.51;99399.81;5093073;28;20070;-48
2023/12/24 01:24:15;;;;;;;9.27;5.05;;;;;;;9.47;81.24;99400.47;5091695;28;20468;-48
2023/12/24 01:26:41;;;;;;;37.55;33.47;;;;;;;9.44;83.19;99407.84;5093013;28;20020;-48
2023/12/24 01:29:07;;;;;;;13.70;11.15;;;;;;;9.49;84.34;99411.59;5091678;28;20032;-48
2023/12/24 01:31:33;;;;;;;36.53;32.60;;;;;;;9.79;87.13;99388.91;5091600;28;20024;-49
2023/12/24 01:33:58;;;;;;;20.00;17.98;;;;;;;10.20;87.44;99393.75;5091643;28;20021;-49
2023/12/24 01:36:25;;;;;;;11.63;9.07;;;;;;;10.71;86.90;99385.16;5092851;28;20016;-48
2023/12/24 01:38:50;;;;;;;32.55;23.23;;;;;;;11.13;86.37;99395.94;5091399;28;20500;-49
2023/12/24 01:41:16;;;;;;;16.50;14.65;;;;;;;11.36;85.20;99388.66;5092833;28;20107;-48
2023/12/24 01:43:43;;;;;;;11.43;7.50;;;;;;;11.35;85.10;99386.25;5091382;28;20485;-48
2023/12/24 01:46:11;;;;;;;10.50;7.57;;;;;;;11.47;86.61;99392.63;5092721;28;20016;-49
2023/12/24 01:48:38;;;;;;;6.18;4.30;;;;;;;11.50;86.51;99383.53;5092665;28;20028;-49
2023/12/24 01:51:04;;;;;;;8.52;4.25;;;;;;;11.03;80.35;99382.25;5091317;28;20405;-49
2023/12/24 01:53:31;;;;;;;5.97;4.22;;;;;;;10.36;79.50;99378.84;5091237;28;20024;-49
2023/12/24 01:55:59;;;;;;;6.72;4.68;;;;;;;9.98;83.59;99373.69;5092519;28;20017;-48
2023/12/24 01:58:25;;;;;;;5.65;3.85;;;;;;;10.32;87.54;99385.47;5092366;28;20024;-48
2023/12/24 02:00:51;;;;;;;7.35;5.85;;;;;;;10.39;87.00;99394.25;5074266;28;20020;-48
2023/12/24 02:03:17;;;;;;;7.07;3.97;;;;;;;10.55;88.43;99386.19;5092329;28;20031;-48
2023/12/24 02:05:48;;;;;;;5.25;3.35;;;;;;;10.59;87.81;99386.63;5092260;28;20509;-49
2023/12/24 02:08:18;;;;;;;8.27;4.05;;;;;;;10.96;88.67;99388.25;5090975;28;20024;-48
2023/12/24 02:10:45;;;;;;;6.55;4.20;;;;;;;11.44;88.14;99390.38;5092237;28;20036;-49
2023/12/24 02:13:15;;;;;;;5.38;3.58;;;;;;;11.64;85.62;99379.22;5092195;28;20099;-48
2023/12/24 02:15:41;;;;;;;9.70;4.68;;;;;;;11.62;85.53;99383.84;5092112;28;20158;-49
2023/12/24 02:18:07;;;;;;;5.22;4.38;;;;;;;11.53;83.61;99373.47;5092074;28;20031;-49
2023/12/24 02:20:33;;;;;;;8.77;7.88;;;;;;;11.33;81.83;99373.28;5092057;28;20114;-49
2023/12/24 02:22:59;;;;;;;9.93;4.35;;;;;;;11.49;82.96;99381.91;5089783;28;20177;-49
2023/12/24 02:25:26;;;;;;;6.00;3.38;;;;;;;12.06;83.15;99367.00;5092042;28;20103;-49
2023/12/24 02:27:58;;;;;;;6.57;3.10;;;;;;;12.48;79.85;99352.06;5090725;28;20038;-48
2023/12/24 02:30:35;;;;;;;7.82;6.53;;;;;;;12.57;77.60;99354.28;5092030;28;20176;-48
2023/12/24 02:33:03;;;;;;;7.22;5.13;;;;;;;12.42;74.86;99358.09;5090857;28;20024;-49
2023/12/24 02:35:33;;;;;;;6.53;4.82;;;;;;;11.84;70.07;99353.06;5090550;28;20153;-49
2023/12/24 02:37:59;;;;;;;12.10;3.90;;;;;;;11.87;74.18;99357.94;5090853;28;20397;-49
2023/12/24 02:40:25;;;;;;;10.93;3.85;;;;;;;12.23;74.24;99362.25;5090551;28;20024;-49
2023/12/24 02:42:50;;;;;;;7.25;3.58;;;;;;;12.62;73.10;99350.28;5091869;28;20031;-49
2023/12/24 02:45:16;;;;;;;6.68;4.00;;;;;;;12.91;70.96;99351.78;5090490;28;20165;-49
2023/12/24 02:47:42;;;;;;;7.82;4.35;;;;;;;12.90;70.52;99348.34;5091718;28;20099;-49
2023/12/24 02:50:08;;;;;;;9.52;5.32;;;;;;;13.13;70.34;99347.97;5090601;28;20035;-49
2023/12/24 02:52:33;;;;;;;4.93;3.45;;;;;;;13.32;69.87;99346.41;5091697;28;20129;-49
2023/12/24 02:54:59;;;;;;;7.03;3.72;;;;;;;13.46;68.70;99335.84;5090423;28;20115;-49
2023/12/24 02:57:26;;;;;;;9.10;3.53;;;;;;;13.44;67.30;99332.63;5090383;28;20034;-49
2023/12/24 02:59:52;;;;;;;10.00;4.18;;;;;;;13.43;66.64;99336.28;5091626;28;20115;-49
2023/12/24 03:02:17;;;;;;;14.00;6.40;;;;;;;13.19;66.50;99314.72;5091647;28;20119;-48
2023/12/24 03:04:43;;;;;;;8.27;4.90;;;;;;;13.03;66.33;99325.66;5091522;28;20028;-49
2023/12/24 03:07:09;;;;;;;6.47;3.90;;;;;;;12.80;66.96;99321.56;5090318;28;20024;-49
2023/12/24 03:09:34;;;;;;;5.85;3.65;;;;;;;12.81;66.80;99325.81;5091594;28;20090;-49
2023/12/24 03:12:01;;;;;;;6.93;3.25;;;;;;;12.43;66.03;99315.75;5090593;28;20447;-49
2023/12/24 03:14:27;;;;;;;9.43;4.82;;;;;;;11.93;67.29;99330.91;5091832;28;20401;-49
2023/12/24 03:16:54;;;;;;;7.57;4.20;;;;;;;11.80;68.10;99321.88;5091561;28;20034;-49
2023/12/24 03:19:21;;;;;;;6.53;4.30;;;;;;;11.68;68.67;99327.88;5091734;28;20420;-50
2023/12/24 03:21:46;;;;;;;5.05;3.95;;;;;;;11.41;69.38;99325.06;5091483;28;20024;-49
2023/12/24 03:24:12;;;;;;;8.20;5.78;;;;;;;11.30;69.19;99322.94;5091231;28;20044;-49
2023/12/24 03:26:38;;;;;;;6.22;4.63;;;;;;;11.08;70.02;99330.81;5090429;28;20024;-49
2023/12/24 03:29:05;;;;;;;5.32;3.90;;;;;;;11.03;70.53;99327.09;5090128;28;20116;-49
2023/12/24 03:31:31;;;;;;;6.65;4.80;;;;;;;11.23;70.55;99332.56;5090031;28;20024;-49
2023/12/24 03:33:57;;;;;;;9.95;6.90;;;;;;;11.27;70.13;99321.50;5090865;28;20027;-49
2023/12/24 03:36:22;;;;;;;7.32;4.90;;;;;;;10.99;69.59;99319.63;5094164;28;20386;-48
2023/12/24 03:38:48;;;;;;;9.25;5.47;;;;;;;10.95;70.76;99310.50;5095024;28;20024;-49
2023/12/24 03:41:15;;;;;;;8.68;6.50;;;;;;;10.63;69.78;99308.34;5095067;28;20505;-49
2023/12/24 03:43:41;;;;;;;6.60;4.53;;;;;;;10.39;70.88;99310.28;5095051;28;20020;-49
2023/12/24 03:46:06;;;;;;;7.53;4.60;;;;;;;10.51;72.57;99315.88;5093664;28;20028;-48
2023/12/24 03:48:35;;;;;;;9.23;5.38;;;;;;;10.67;72.10;99310.41;5094967;28;20584;-49
2023/12/24 03:51:01;;;;;;;6.88;5.50;;;;;;;10.24;71.03;99310.28;5094942;28;20103;-49
2023/12/24 03:53:28;;;;;;;7.07;5.10;;;;;;;9.72;71.51;99311.19;5093501;28;20527;-49
2023/12/24 03:55:54;;;;;;;7.88;3.67;;;;;;;9.29;73.40;99305.66;5094754;28;20149;-49
2023/12/24 03:58:20;;;;;;;8.55;3.70;;;;;;;8.90;74.41;99304.81;5093380;28;20103;-49
2023/12/24 04:00:45;;;;;;;10.57;7.70;;;;;;;8.44;75.84;99296.91;5093381;28;20123;-49
2023/12/24 04:03:11;;;;;;;6.72;4.10;;;;;;;8.04;77.71;99298.66;5094673;28;20074;-49
2023/12/24 04:05:37;;;;;;;5.85;3.72;;;;;;;7.71;78.85;99295.34;5093232;28;20562;-49
2023/12/24 04:08:04;;;;;;;7.43;4.68;;;;;;;7.45;80.60;99298.16;5094594;28;20073;-49
2023/12/24 04:10:31;;;;;;;32.05;27.98;;;;;;;7.32;81.73;99306.47;5093173;28;20020;-49
2023/12/24 04:13:03;;;;;;;27.83;24.02;;;;;;;7.38;82.23;99306.66;5094496;28;20497;-48
2023/12/24 04:15:29;;;;;;;10.38;8.05;;;;;;;7.70;83.34;99298.91;5094394;28;20028;-48
2023/12/24 04:17:54;;;;;;;8.95;4.40;;;;;;;8.15;84.02;99287.03;5094351;28;20020;-49
2023/12/24 04:20:20;;;;;;;6.90;4.90;;;;;;;8.43;82.96;99289.22;5094373;28;20099;-49
2023/12/24 04:22:46;;;;;;;9.77;6.00;;;;;;;8.29;81.64;99296.78;5092728;28;20505;-49
2023/12/24 04:25:11;;;;;;;7.18;4.57;;;;;;;8.03;81.01;99293.59;5094242;28;20070;-49
2023/12/24 04:27:37;;;;;;;12.15;4.70;;;;;;;7.82;81.32;99296.78;5092872;28;20499;-49
2023/12/24 04:30:03;;;;;;;5.57;3.97;;;;;;;7.49;81.42;99300.25;5094175;28;20132;-49
2023/12/24 04:32:29;;;;;;;8.07;4.93;;;;;;;7.15;82.11;99308.28;5094128;28;20023;-49
2023/12/24 04:34:54;;;;;;;6.70;3.25;;;;;;;6.94;82.32;99312.19;5094024;28;20073;-48
2023/12/24 04:37:20;;;;;;;6.15;3.58;;;;;;;6.81;83.20;99309.22;5094055;28;20700;-48
2023/12/24 04:39:46;;;;;;;5.63;3.63;;;;;;;6.78;84.04;99310.34;5093894;28;20028;-49
2023/12/24 04:42:12;;;;;;;6.20;4.05;;;;;;;6.91;85.82;99304.66;5093895;28;20027;-48
2023/12/24 04:44:38;;;;;;;7.38;3.97;;;;;;;7.50;86.16;99306.28;5092568;28;20394;-49
2023/12/24 04:47:06;;;;;;;17.35;13.60;;;;;;;8.29;86.57;99299.41;5091725;28;20085;-48
2023/12/24 04:49:31;;;;;;;6.15;3.70;;;;;;;9.04;84.47;99305.84;5093758;28;20028;-49
2023/12/24 04:51:59;;;;;;;6.22;4.05;;;;;;;9.45;82.20;99304.72;5093679;28;20095;-49
2023/12/24 04:54:25;;;;;;;10.82;4.35;;;;;;;9.59;79.65;99296.06;5092477;28;20027;-49
2023/12/24 04:56:51;;;;;;;5.22;3.67;;;;;;;9.23;77.50;99301.94;5092314;28;20028;-49
2023/12/24 04:59:17;;;;;;;4.43;2.90;;;;;;;8.86;78.03;99305.34;5092222;28;20024;-49
2023/12/24 05:01:42;;;;;;;7.43;4.57;;;;;;;8.95;79.14;99307.72;5092205;28;20062;-49
2023/12/24 05:04:08;;;;;;;9.38;3.45;;;;;;;9.16;79.35;99312.31;5092176;28;20123;-49
2023/12/24 05:06:34;;;;;;;9.18;3.38;;;;;;;9.39;78.75;99311.47;5093452;28;20024;-49
2023/12/24 05:08:59;;;;;;;5.03;3.10;;;;;;;9.18;77.15;99306.91;5093466;28;20027;-49
2023/12/24 05:11:25;;;;;;;5.53;3.53;;;;;;;8.96;77.23;99314.56;5091964;28;20040;-49
2023/12/24 05:13:50;;;;;;;7.47;3.33;;;;;;;8.77;77.33;99321.09;5093368;28;20024;-49
2023/12/24 05:16:16;;;;;;;6.50;2.85;;;;;;;8.60;77.66;99316.94;5091961;28;20172;-49
2023/12/24 05:18:42;;;;;;;5.60;3.08;;;;;;;8.19;76.56;99320.50;5093156;28;20016;-48
2023/12/24 05:21:07;;;;;;;4.50;3.67;;;;;;;8.01;78.29;99325.16;5093165;28;20031;-49
2023/12/24 05:23:33;;;;;;;4.93;3.00;;;;;;;8.26;79.26;99325.06;5091561;28;20046;-49
2023/12/24 05:25:59;;;;;;;4.35;2.17;;;;;;;8.60;78.54;99337.84;5093002;28;20024;-49
2023/12/24 05:28:24;;;;;;;4.72;2.08;;;;;;;8.63;77.50;99329.66;5091720;28;20062;-49
2023/12/24 05:30:50;;;;;;;3.70;2.65;;;;;;;8.59;77.32;99334.44;5092972;28;20512;-49
2023/12/24 05:33:16;;;;;;;7.60;3.13;;;;;;;8.66;77.47;99336.38;5092950;28;20107;-49
2023/12/24 05:35:41;;;;;;;7.40;3.88;;;;;;;8.54;75.66;99334.13;5092790;28;20024;-48
2023/12/24 05:38:07;;;;;;;5.38;3.80;;;;;;;8.02;74.70;99342.44;5074613;28;20024;-48
2023/12/24 05:40:33;;;;;;;27.52;24.70;;;;;;;7.43;75.19;99344.50;5093050;28;20059;-49
2023/12/24 05:42:58;;;;;;;11.95;6.32;;;;;;;6.94;76.50;99340.88;5092803;28;20028;-48
2023/12/24 05:45:24;;;;;;;7.07;4.13;;;;;;;6.57;78.38;99349.91;5092623;28;20103;-49
2023/12/24 05:47:50;;;;;;;7.22;4.55;;;;;;;6.38;80.15;99345.75;5092730;28;20394;-48
2023/12/24 05:50:15;;;;;;;79.47;72.22;;;;;;;6.49;81.55;99344.66;5074459;28;20444;-49
2023/12/24 05:52:41;;;;;;;7.63;6.25;;;;;;;6.55;80.97;99346.63;5092628;28;20381;-48
2023/12/24 05:55:08;;;;;;;6.30;3.65;;;;;;;6.33;81.05;99349.81;5092789;28;20054;-49
2023/12/24 05:57:34;;;;;;;5.95;2.88;;;;;;;6.04;81.43;99358.78;5091416;28;20081;-49
2023/12/24 06:00:00;;;;;;;7.45;3.05;;;;;;;5.80;81.93;99355.03;5092423;28;20020;-48
2023/12/24 06:02:26;;;;;;;10.93;3.00;;;;;;;5.73;83.11;99354.00;5091086;28;20026;-49
2023/12/24 06:04:52;;;;;;;5.00;2.88;;;;;;;5.66;83.60;99366.00;5091060;28;20032;-49
2023/12/24 06:07:17;;;;;;;6.22;3.03;;;;;;;5.77;84.76;99372.75;5091019;28;20117;-48
2023/12/24 06:09:43;;;;;;;4.82;3.15;;;;;;;6.18;86.29;99370.44;5092292;28;20032;-49
2023/12/24 06:12:09;;;;;;;5.35;3.58;;;;;;;6.49;84.74;99362.91;5090944;28;20502;-49
2023/12/24 06:14:34;;;;;;;9.98;3.47;;;;;;;6.55;83.62;99354.44;5092174;28;20024;-49
2023/12/24 06:17:00;;;;;;;7.18;3.22;;;;;;;6.52;82.42;99361.75;5092197;28;20020;-49
2023/12/24 06:19:26;;;;;;;6.18;2.80;;;;;;;6.35;81.13;99358.28;5092094;28;20020;-48
2023/12/24 06:21:52;;;;;;;3.45;2.40;;;;;;;5.99;81.06;99356.63;5092145;28;20585;-48
2023/12/24 06:24:21;;;;;;;4.25;2.20;;;;;;;5.82;81.93;99356.69;5091949;28;20043;-49
2023/12/24 06:26:47;;;;;;;3.50;2.47;;;;;;;5.79;82.66;99358.63;5090931;28;20514;-48
2023/12/24 06:29:14;;;;;;;5.20;2.53;;;;;;;6.35;85.13;99359.09;5092060;28;20036;-48
2023/12/24 06:31:39;;;;;;;10.88;5.72;;;;;;;6.98;84.31;99368.28;5073947;28;20402;-49
2023/12/24 06:34:05;;;;;;;4.57;2.70;;;;;;;7.07;81.83;99370.91;5090679;28;20031;-48
2023/12/24 06:36:31;;;;;;;6.82;4.60;;;;;;;6.75;80.38;99369.84;5090636;28;20107;-48
2023/12/24 06:38:56;;;;;;;10.38;8.98;;;;;;;6.73;81.97;99366.59;5090637;28;20121;-49
2023/12/24 06:41:23;;;;;;;6.97;5.38;;;;;;;6.92;81.28;99368.94;5091950;28;20038;-48
2023/12/24 06:43:49;;;;;;;5.30;3.10;;;;;;;6.97;80.19;99364.03;5090631;28;20036;-49
2023/12/24 06:46:15;;;;;;;5.78;2.65;;;;;;;6.68;77.91;99361.00;5091814;28;20020;-48
2023/12/24 06:48:41;;;;;;;5.97;2.63;;;;;;;6.18;78.07;99365.22;5091815;28;20032;-48
2023/12/24 06:51:07;;;;;;;22.42;18.85;;;;;;;5.81;78.70;99366.25;5090538;28;20031;-49
2023/12/24 06:53:34;;;;;;;9.75;7.47;;;;;;;5.56;80.09;99370.50;5091812;28;20081;-49
2023/12/24 06:55:59;;;;;;;5.50;4.38;;;;;;;5.48;81.44;99373.03;5091796;28;20076;-48
2023/12/24 06:58:25;;;;;;;19.90;17.85;;;;;;;5.38;81.53;99379.13;5090358;28;20020;-48
2023/12/24 07:00:51;;;;;;;8.52;6.50;;;;;;;5.49;83.14;99378.06;5090387;28;20028;-48
2023/12/24 07:03:17;;;;;;;10.48;8.00;;;;;;;5.75;83.52;99372.06;5090524;28;20039;-48
2023/12/24 07:05:43;;;;;;;8.70;4.03;;;;;;;5.91;83.23;99382.59;5090313;28;20046;-48
2023/12/24 07:08:09;;;;;;;9.15;5.10;;;;;;;6.02;82.75;99376.38;5091681;28;20024;-48
2023/12/24 07:10:36;;;;;;;8.57;3.47;;;;;;;6.14;82.17;99375.13;5095119;28;20032;-48
2023/12/24 07:13:01;;;;;;;9.27;4.32;;;;;;;6.29;81.50;99380.56;5094456;28;20028;-49
2023/12/24 07:15:27;;;;;;;6.25;4.40;;;;;;;6.33;81.81;99376.69;5095595;28;20577;-48
2023/12/24 07:17:53;;;;;;;6.93;5.35;;;;;;;6.49;81.52;99370.72;5095585;28;20028;-48
2023/12/24 07:20:18;;;;;;;10.10;5.88;;;;;;;6.58;80.87;99372.41;5095430;28;20397;-49
2023/12/24 07:22:44;;;;;;;5.55;3.13;;;;;;;6.40;79.33;99374.28;5095333;28;20036;-48
2023/12/24 07:25:10;;;;;;;5.03;3.30;;;;;;;6.19;79.68;99372.88;5094169;28;20165;-48
2023/12/24 07:27:36;;;;;;;7.50;5.50;;;;;;;6.23;80.36;99369.97;5093996;28;20024;-49
2023/12/24 07:30:03;;;;;;;9.68;3.55;;;;;;;6.19;80.04;99380.69;5094147;28;20028;-48
2023/12/24 07:32:28;;;;;;;8.63;7.05;;;;;;;6.12;79.93;99381.47;5095296;28;20032;-48
2023/12/24 07:34:56;;;;;;;6.20;3.72;;;;;;;6.48;80.97;99371.72;5093944;28;20031;-48
2023/12/24 07:37:22;;;;;;;6.20;4.43;;;;;;;7.27;79.42;99376.66;5093886;28;20063;-48
2023/12/24 07:39:47;;;;;;;5.43;4.40;;;;;;;7.88;77.07;99364.03;5093785;28;20063;-49
2023/12/24 07:42:13;;;;;;;10.52;6.93;;;;;;;8.31;74.10;99369.81;5093778;28;20130;-49
2023/12/24 07:44:39;;;;;;;5.70;3.80;;;;;;;8.67;72.13;99358.91;5095066;28;20017;-49
2023/12/24 07:47:05;;;;;;;8.00;6.50;;;;;;;9.14;70.79;99364.03;5095278;28;20161;-49
2023/12/24 07:49:31;;;;;;;8.02;5.00;;;;;;;9.36;68.75;99370.28;5095196;28;20024;-49
2023/12/24 07:51:57;;;;;;;11.65;10.45;;;;;;;9.12;68.30;99373.06;5095141;28;20024;-49
2023/12/24 07:54:22;;;;;;;17.13;13.00;;;;;;;8.67;68.35;99370.22;5093517;28;20016;-49
2023/12/24 07:56:48;;;;;;;5.55;3.80;;;;;;;8.19;69.22;99377.22;5094808;28;20032;-49
2023/12/24 07:59:14;;;;;;;5.57;3.55;;;;;;;7.71;69.29;99379.75;5094788;28;20020;-49
2023/12/24 08:01:39;;;;;;;5.97;3.60;;;;;;;7.16;70.67;99378.59;5094703;28;20099;-49
2023/12/24 08:04:05;;;;;;;17.58;5.35;;;;;;;6.85;72.18;99382.75;5094697;28;20493;-49
2023/12/24 08:06:31;;;;;;;7.00;4.38;;;;;;;6.67;72.78;99380.25;5093275;28;20413;-49
2023/12/24 08:08:57;;;;;;;12.80;6.45;;;;;;;6.70;74.26;99379.94;5093404;28;20466;-49
2023/12/24 08:11:24;;;;;;;5.57;3.22;;;;;;;6.86;74.19;99385.22;5094529;28;20498;-49
2023/12/24 08:13:49;;;;;;;5.07;3.40;;;;;;;6.70;74.09;99382.53;5094555;28;20103;-49
2023/12/24 08:16:15;;;;;;;5.93;4.20;;;;;;;6.54;75.05;99383.28;5094415;28;20454;-48
2023/12/24 08:18:41;;;;;;;6.32;3.85;;;;;;;6.44;75.33;99373.00;5094367;28;20030;-49
2023/12/24 08:21:09;;;;;;;12.80;11.60;;;;;;;6.60;76.21;99364.44;5093418;28;20023;-49
2023/12/24 08:23:36;;;;;;;8.55;5.05;;;;;;;7.23;75.68;99367.50;5092734;28;20553;-49
2023/12/24 08:26:01;;;;;;;7.30;6.03;;;;;;;7.98;73.48;99369.91;5094295;28;20031;-49
2023/12/24 08:28:27;;;;;;;7.07;4.88;;;;;;;8.62;71.07;99363.84;5092938;28;20393;-49
2023/12/24 08:30:53;;;;;;;9.98;7.05;;;;;;;9.30;69.60;99355.25;5094173;28;20067;-49
2023/12/24 08:33:18;;;;;;;6.35;4.25;;;;;;;10.23;67.92;99350.63;5094096;28;20031;-49
2023/12/24 08:35:44;;;;;;;8.32;6.10;;;;;;;10.52;65.56;99360.31;5094119;28;20478;-49
2023/12/24 08:38:10;;;;;;;10.68;8.07;;;;;;;11.22;63.80;99359.84;5093948;28;20054;-49
2023/12/24 08:40:36;;;;;;;6.82;5.47;;;;;;;11.82;61.69;99360.34;5093953;28;20060;-49
2023/12/24 08:43:01;;;;;;;7.28;5.57;;;;;;;12.11;60.24;99361.97;5094009;28;20107;-49
2023/12/24 08:45:28;;;;;;;5.68;4.30;;;;;;;12.06;58.85;99354.66;5092560;28;20035;-49
2023/12/24 08:47:54;;;;;;;9.40;5.97;;;;;;;12.33;59.64;99357.44;5093847;28;20497;-49
2023/12/24 08:50:21;;;;;;;5.57;3.72;;;;;;;12.95;59.61;99360.91;5092475;28;20032;-49
2023/12/24 08:52:47;;;;;;;9.50;4.80;;;;;;;13.95;58.08;99353.09;5093706;28;20028;-49
2023/12/24 08:55:13;;;;;;;7.97;4.85;;;;;;;15.05;55.29;99352.28;5093583;28;20398;-47
2023/12/24 08:57:38;;;;;;;9.55;3.97;;;;;;;15.51;52.76;99359.91;5093717;28;20113;-47
2023/12/24 09:00:05;;;;;;;7.45;4.32;;;;;;;15.76;54.95;99346.69;5093478;28;20486;-47
2023/12/24 09:02:31;;;;;;;6.90;4.00;;;;;;;15.55;56.13;99353.16;5093559;28;20032;-47
2023/12/24 09:04:58;;;;;;;4.78;3.97;;;;;;;15.52;57.43;99356.22;5093545;28;20031;-47
2023/12/24 09:07:24;;;;;;;8.48;4.30;;;;;;;15.71;56.55;99350.97;5092089;28;20541;-47
2023/12/24 09:09:51;;;;;;;9.13;4.78;;;;;;;16.33;55.24;99346.50;5093386;28;20070;-47
2023/12/24 09:12:19;;;;;;;25.20;22.88;;;;;;;16.50;51.61;99338.78;5093304;28;20028;-47
2023/12/24 09:14:45;;;;;;;9.27;8.32;;;;;;;16.75;50.13;99349.25;5092015;28;20047;-47
2023/12/24 09:17:10;;;;;;;16.63;14.93;;;;;;;17.20;48.46;99348.03;5093292;28;20494;-47
2023/12/24 09:19:36;;;;;;;11.63;10.52;;;;;;;17.54;45.77;99340.38;5093117;28;20032;-47
2023/12/24 09:22:02;;;;;;;16.67;13.02;;;;;;;17.78;45.22;99349.94;5091856;28;20077;-47
2023/12/24 09:24:28;;;;;;;11.60;8.73;;;;;;;17.95;44.47;99344.78;5093067;28;20028;-47
2023/12/24 09:26:53;;;;;;;45.53;26.02;;;;;;;17.94;44.25;99347.69;5093038;28;20082;-47
2023/12/24 09:29:21;;;;;;;12.82;7.63;;;;;;;18.33;42.70;99350.63;5093031;28;20040;-47
2023/12/24 09:31:47;;;;;;;15.40;12.85;;;;;;;18.76;42.74;99357.31;5091381;28;20474;-47
2023/12/24 09:34:13;;;;;;;9.20;6.75;;;;;;;19.17;41.38;99355.41;5092918;28;20218;-47
2023/12/24 09:36:39;;;;;;;6.30;4.22;;;;;;;19.59;40.54;99355.03;5091556;28;20047;-47
2023/12/24 09:39:05;;;;;;;7.13;6.43;;;;;;;19.99;39.60;99354.06;5091419;28;20035;-47
2023/12/24 09:41:30;;;;;;;20.88;7.47;;;;;;;20.03;39.56;99362.38;5092682;28;20509;-47
2023/12/24 09:43:56;;;;;;;8.18;3.28;;;;;;;20.22;39.42;99353.03;5092790;28;20035;-47
2023/12/24 09:46:22;;;;;;;8.85;6.07;;;;;;;20.29;43.26;99358.19;5092698;28;20039;-47
2023/12/24 09:48:48;;;;;;;7.28;5.55;;;;;;;20.17;44.85;99365.47;5091349;28;20562;-47
2023/12/24 09:51:13;;;;;;;4.88;3.70;;;;;;;19.33;44.08;99357.28;5091269;28;20059;-47
2023/12/24 09:53:46;;;;;;;14.13;12.48;;;;;;;19.01;44.58;99359.66;5091286;28;20020;-47
2023/12/24 09:56:12;;;;;;;7.63;4.50;;;;;;;19.02;43.46;99358.63;5091187;28;20034;-47
2023/12/24 09:58:37;;;;;;;6.28;4.00;;;;;;;19.34;43.23;99364.22;5092455;28;20103;-47
2023/12/24 10:01:03;;;;;;;25.35;20.98;;;;;;;19.87;41.29;99353.34;5091251;28;20169;-47
2023/12/24 10:03:29;;;;;;;29.27;20.15;;;;;;;20.08;40.18;99354.41;5092411;28;20035;-47
2023/12/24 10:06:00;;;;;;;26.42;23.67;;;;;;;20.50;39.58;99353.88;5092267;28;20035;-48
2023/12/24 10:08:25;;;;;;;21.20;17.83;;;;;;;21.10;37.72;99336.13;5092258;28;20024;-47
2023/12/24 10:10:51;;;;;;;20.23;17.98;;;;;;;21.43;36.88;99339.63;5092302;28;20398;-48
2023/12/24 10:13:21;;;;;;;7.97;6.03;;;;;;;21.76;36.13;99338.53;5074302;28;20032;-47
2023/12/24 10:16:09;;;;;;;17.17;15.55;;;;;;;22.01;35.83;99329.84;5092131;28;20030;-47
2023/12/24 10:18:36;;;;;;;7.97;5.35;;;;;;;22.15;34.41;99330.19;5092066;28;20111;-48
2023/12/24 10:21:08;;;;;;;5.22;4.25;;;;;;;21.73;35.64;99345.19;5090817;28;20098;-47
2023/12/24 10:23:34;;;;;;;5.97;4.15;;;;;;;21.78;35.50;99340.97;5090769;28;20437;-47
2023/12/24 10:26:02;;;;;;;11.07;4.25;;;;;;;21.72;35.48;99337.44;5092077;28;20398;-47
2023/12/24 10:28:28;;;;;;;7.60;3.47;;;;;;;21.86;35.33;99327.91;5092039;28;20113;-47
2023/12/24 10:31:05;;;;;;;5.47;3.65;;;;;;;22.26;35.15;99323.06;5092026;28;20508;-47
2023/12/24 10:33:31;;;;;;;6.88;3.45;;;;;;;22.43;34.45;99312.94;5092063;28;20024;-48
2023/12/24 10:35:57;;;;;;;4.80;2.80;;;;;;;22.34;34.31;99320.66;5091966;28;20024;-47
2023/12/24 10:38:26;;;;;;;5.30;3.00;;;;;;;22.28;34.02;99318.25;5090577;28;20498;-47
2023/12/24 10:40:52;;;;;;;4.97;3.03;;;;;;;22.30;34.34;99300.06;5073880;28;20024;-47
2023/12/24 10:43:18;;;;;;;6.05;3.22;;;;;;;22.11;34.94;99305.03;5090067;28;20115;-47
2023/12/24 10:45:45;;;;;;;8.32;3.67;;;;;;;21.81;35.27;99303.84;5091678;28;20028;-47
2023/12/24 10:48:12;;;;;;;5.45;3.08;;;;;;;21.58;35.79;99299.69;5090874;28;20091;-47
2023/12/24 10:50:38;;;;;;;4.50;2.88;;;;;;;21.33;36.45;99306.44;5073781;28;20036;-47
2023/12/24 10:53:04;;;;;;;5.13;2.80;;;;;;;21.29;36.43;99308.00;5091831;28;20047;-47
2023/12/24 10:55:34;;;;;;;6.43;3.47;;;;;;;21.68;36.11;99294.41;5091736;28;20107;-48
2023/12/24 10:58:32;;;;;;;4.25;3.58;;;;;;;22.29;34.81;99293.91;5091769;28;20455;-48
2023/12/24 11:01:07;;;;;;;3.88;2.85;;;;;;;22.53;34.44;99288.88;5091795;28;20028;-48
2023/12/24 11:03:47;;;;;;;;;;;;;;;22.93;34.64;99281.19;5092181;28;20386;-47
2023/12/24 11:06:35;;;;;;;6.38;3.83;;;;;;;22.80;33.58;99279.03;5091751;28;19919;-47
2023/12/24 11:09:04;;;;;;;5.38;4.13;;;;;;;22.91;33.08;99278.78;5091627;28;20020;-48
2023/12/24 11:11:55;;;;;;;6.15;3.67;;;;;;;23.13;32.90;99261.69;5091884;28;20024;-48
2023/12/24 11:14:41;;;;;;;6.13;3.50;;;;;;;23.52;32.60;99271.78;5091565;28;20032;-48
2023/12/24 11:17:29;;;;;;;5.15;3.30;;;;;;;23.90;31.71;99261.53;5090209;28;20039;-48
2023/12/24 11:19:55;;;;;;;6.45;4.07;;;;;;;24.08;31.71;99263.59;5091381;28;20028;-48
2023/12/24 11:22:23;;;;;;;6.03;3.80;;;;;;;24.20;31.54;99255.25;5091493;28;20012;-48
2023/12/24 11:25:09;;;;;;;7.55;3.60;;;;;;;24.20;31.19;99254.44;5091905;28;20122;-48
2023/12/24 11:27:53;;;;;;;3.90;3.50;;;;;;;23.95;31.15;99247.34;5091403;28;20020;-48
2023/12/24 11:30:19;;;;;;;6.55;3.10;;;;;;;23.86;31.57;99237.16;5091424;28;20031;-48
2023/12/24 11:32:45;;;;;;;6.18;3.38;;;;;;;23.99;31.51;99243.81;5090196;28;20024;-47